Time;durP1;ratioP1;P1;durP2;ratioP2;P2;SDS_P1;SDS_P2;PMS_P1;PMS_P2;Temp;Humidity;BMP_temperature;BMP_pressure;BME280_temperature;BME280_humidity;BME280_pressure;Samples;Min_cycle;Max_cycle;Signal;HPM_P1;HPM_P2
2021/01/01 00:01:54;;;;;;;18.80;14.73;;;4.80;99.90;;;;;;5094448;28;20624;-60
2021/01/01 00:04:20;;;;;;;21.80;16.23;;;5.00;99.90;;;;;;5094429;28;20587;-61
2021/01/01 00:06:47;;;;;;;20.77;14.60;;;5.00;99.90;;;;;;5095032;28;20187;-61
2021/01/01 00:09:13;;;;;;;18.25;13.77;;;5.00;99.90;;;;;;5095429;28;20194;-61
2021/01/01 00:11:39;;;;;;;22.10;16.33;;;5.00;99.90;;;;;;5093426;28;20608;-59
2021/01/01 00:14:04;;;;;;;19.10;13.80;;;5.10;99.90;;;;;;5093797;28;20346;-59
2021/01/01 00:16:30;;;;;;;18.63;13.70;;;5.20;99.90;;;;;;5093901;28;20336;-62
2021/01/01 00:18:56;;;;;;;19.73;13.67;;;5.10;99.90;;;;;;5093178;28;20225;-62
2021/01/01 00:21:32;;;;;;;21.07;13.00;;;5.10;73.40;;;;;;5093821;28;20191;-62
2021/01/01 00:23:58;;;;;;;18.60;13.25;;;4.90;21.80;;;;;;5094064;28;20209;-61
2021/01/01 00:26:23;;;;;;;14.90;11.73;;;4.80;94.80;;;;;;5095726;28;20612;-58
2021/01/01 00:28:49;;;;;;;24.27;14.40;;;4.80;99.90;;;;;;5095899;28;20429;-60
2021/01/01 00:31:20;;;;;;;19.63;13.50;;;4.80;99.90;;;;;;5095681;28;20910;-60
2021/01/01 00:33:46;;;;;;;19.05;13.20;;;4.80;99.90;;;;;;5095255;28;20766;-60
2021/01/01 00:36:13;;;;;;;30.73;15.50;;;4.90;99.90;;;;;;5096112;28;20176;-61
2021/01/01 00:38:46;;;;;;;45.58;27.02;;;5.00;99.90;;;;;;5095520;28;20233;-60
2021/01/01 00:41:21;;;;;;;22.17;15.55;;;5.10;38.90;;;;;;5095466;28;20267;-60
2021/01/01 00:43:46;;;;;;;36.03;21.02;;;4.90;1.00;;;;;;5095090;28;20191;-60
2021/01/01 00:46:12;;;;;;;19.90;14.17;;;4.80;1.00;;;;;;5094850;28;20305;-60
2021/01/01 00:48:37;;;;;;;22.70;14.27;;;4.80;1.00;;;;;;5095156;28;20608;-60
2021/01/01 00:51:03;;;;;;;20.40;12.73;;;4.80;1.00;;;;;;5095881;28;20710;-60
2021/01/01 00:53:29;;;;;;;19.77;12.80;;;4.50;1.00;;;;;;5095522;28;20214;-60
2021/01/01 00:55:54;;;;;;;20.40;11.97;;;4.50;1.00;;;;;;5095138;28;20218;-60
2021/01/01 00:58:20;;;;;;;17.63;12.00;;;4.50;1.00;;;;;;5095042;28;20437;-60
2021/01/01 01:00:45;;;;;;;18.10;10.90;;;4.50;1.00;;;;;;5094849;28;20207;-60
2021/01/01 01:03:11;;;;;;;26.80;17.67;;;4.60;1.00;;;;;;5094991;28;20176;-61
2021/01/01 01:05:36;;;;;;;24.60;16.73;;;4.60;1.00;;;;;;5095056;28;20663;-60
2021/01/01 01:08:02;;;;;;;20.10;13.40;;;4.60;1.00;;;;;;5094061;28;20655;-60
2021/01/01 01:10:27;;;;;;;16.47;11.90;;;4.70;1.00;;;;;;5095040;28;20211;-60
2021/01/01 01:12:53;;;;;;;17.87;12.23;;;4.70;1.00;;;;;;5094759;28;20210;-60
2021/01/01 01:15:18;;;;;;;20.97;11.90;;;4.70;1.00;;;;;;5093643;28;20505;-60
2021/01/01 01:17:44;;;;;;;15.97;11.57;;;4.80;1.00;;;;;;5095025;28;20179;-60
2021/01/01 01:20:10;;;;;;;16.27;10.33;;;4.70;1.00;;;;;;5095150;28;20767;-59
2021/01/01 01:22:36;;;;;;;14.20;9.95;;;4.80;1.00;;;;;;5094650;28;20176;-60
2021/01/01 01:25:02;;;;;;;14.80;10.20;;;4.90;1.00;;;;;;5094535;28;20186;-63
2021/01/01 01:27:28;;;;;;;15.43;10.95;;;4.70;1.00;;;;;;5094540;28;20190;-62
2021/01/01 01:29:53;;;;;;;16.37;11.03;;;4.90;1.00;;;;;;5094352;28;20172;-62
2021/01/01 01:32:19;;;;;;;13.87;8.83;;;4.90;1.00;;;;;;5094754;28;20668;-62
2021/01/01 01:34:44;;;;;;;14.73;10.53;;;4.90;1.00;;;;;;5094225;28;20180;-59
2021/01/01 01:37:10;;;;;;;16.70;11.73;;;4.90;1.00;;;;;;5094602;28;20172;-59
2021/01/01 01:39:35;;;;;;;19.93;11.20;;;4.90;1.00;;;;;;5094668;28;20199;-59
2021/01/01 01:42:01;;;;;;;17.63;11.43;;;4.90;1.00;;;;;;5093581;28;20433;-60
2021/01/01 01:44:28;;;;;;;17.00;11.27;;;4.90;1.00;;;;;;5094416;28;20168;-60
2021/01/01 01:46:53;;;;;;;15.05;10.70;;;4.70;1.00;;;;;;5094636;28;20178;-60
2021/01/01 01:49:20;;;;;;;18.60;12.13;;;4.70;1.00;;;;;;5094479;28;20258;-60
2021/01/01 01:51:47;;;;;;;18.67;10.88;;;4.70;1.00;;;;;;5094285;28;20179;-60
2021/01/01 01:54:15;;;;;;;14.52;9.88;;;4.70;1.00;;;;;;5094087;28;20576;-61
2021/01/01 01:56:43;;;;;;;16.10;10.82;;;4.60;1.00;;;;;;5094374;28;20317;-61
2021/01/01 01:59:10;;;;;;;15.20;10.52;;;4.80;1.00;;;;;;5093988;28;20180;-61
2021/01/01 02:01:35;;;;;;;15.63;10.80;;;4.70;1.00;;;;;;5094132;28;20609;-61
2021/01/01 02:04:01;;;;;;;15.70;9.80;;;4.80;1.00;;;;;;5093780;28;20184;-61
2021/01/01 02:06:27;;;;;;;14.50;9.00;;;4.70;1.00;;;;;;5094025;28;20663;-61
2021/01/01 02:08:52;;;;;;;15.37;9.57;;;4.70;1.00;;;;;;5094050;28;20581;-61
2021/01/01 02:11:18;;;;;;;16.60;10.93;;;4.80;1.00;;;;;;5094063;28;20422;-61
2021/01/01 02:13:47;;;;;;;16.00;10.50;;;4.80;1.00;;;;;;5093778;28;20227;-62
2021/01/01 02:16:14;;;;;;;14.00;10.43;;;4.90;1.00;;;;;;5093734;28;20263;-60
2021/01/01 02:18:41;;;;;;;17.60;9.55;;;4.90;99.90;;;;;;5092839;28;20184;-62
2021/01/01 02:21:08;;;;;;;17.92;11.18;;;5.00;1.00;;;;;;5093920;28;20184;-62
2021/01/01 02:23:35;;;;;;;12.32;9.48;;;5.20;99.90;;;;;;5093738;28;20188;-62
2021/01/01 02:26:01;;;;;;;16.30;9.52;;;5.20;1.00;;;;;;5094057;28;20676;-62
2021/01/01 02:28:27;;;;;;;17.30;10.63;;;5.30;1.00;;;;;;5093734;28;20269;-61
2021/01/01 02:30:52;;;;;;;17.50;11.17;;;5.00;1.00;;;;;;5095226;28;20286;-61
2021/01/01 02:33:18;;;;;;;16.23;10.30;;;4.90;1.00;;;;;;5096953;28;20480;-61
2021/01/01 02:35:44;;;;;;;17.17;11.73;;;5.10;99.90;;;;;;5096735;28;20459;-61
2021/01/01 02:38:10;;;;;;;19.33;11.93;;;5.30;1.00;;;;;;5096512;28;20176;-60
2021/01/01 02:40:35;;;;;;;16.83;10.30;;;5.20;1.00;;;;;;5096837;28;20426;-63
2021/01/01 02:43:01;;;;;;;17.50;12.10;;;5.20;1.00;;;;;;5102303;28;20188;-63
2021/01/01 02:45:27;;;;;;;16.58;11.30;;;5.20;1.00;;;;;;5104219;28;20191;-62
2021/01/01 02:47:53;;;;;;;14.47;11.23;;;5.20;1.00;;;;;;5102441;28;20182;-62
2021/01/01 02:50:18;;;;;;;16.23;10.70;;;5.20;1.00;;;;;;5101302;28;20625;-61
2021/01/01 02:52:44;;;;;;;17.07;11.60;;;5.30;1.00;;;;;;5099445;28;20196;-63
2021/01/01 02:55:10;;;;;;;15.30;12.30;;;5.20;99.90;;;;;;5100197;28;20180;-61
2021/01/01 02:57:36;;;;;;;19.45;11.38;;;5.20;1.00;;;;;;5101021;28;20418;-61
2021/01/01 03:00:04;;;;;;;22.35;12.30;;;5.10;1.00;;;;;;5099565;28;20192;-61
2021/01/01 03:02:30;;;;;;;17.73;12.02;;;5.20;1.00;;;;;;5098979;28;20180;-60
2021/01/01 03:04:55;;;;;;;20.57;12.77;;;4.90;1.00;;;;;;5099338;28;20505;-60
2021/01/01 03:07:21;;;;;;;21.00;12.63;;;4.90;92.50;;;;;;5098286;28;20191;-60
2021/01/01 03:09:47;;;;;;;20.27;12.97;;;5.10;99.90;;;;;;5098708;28;20168;-60
2021/01/01 03:12:12;;;;;;;18.30;12.83;;;5.10;99.90;;;;;;5098365;28;20553;-63
2021/01/01 03:14:38;;;;;;;18.30;13.20;;;5.10;99.90;;;;;;5097388;28;20168;-63
2021/01/01 03:17:03;;;;;;;20.43;12.30;;;5.30;99.90;;;;;;5098528;28;20208;-60
2021/01/01 03:19:29;;;;;;;18.27;12.43;;;5.50;1.00;;;;;;5098173;28;20259;-60
2021/01/01 03:21:54;;;;;;;18.70;12.47;;;5.60;1.00;;;;;;5098263;28;20176;-60
2021/01/01 03:24:20;;;;;;;18.33;11.40;;;5.70;64.80;;;;;;5097522;28;20191;-61
2021/01/01 03:26:45;;;;;;;21.50;13.43;;;5.70;99.90;;;;;;5097457;28;20180;-61
2021/01/01 03:29:11;;;;;;;18.23;11.90;;;5.50;1.00;;;;;;5097151;28;20172;-61
2021/01/01 03:31:36;;;;;;;22.93;13.20;;;5.60;1.00;;;;;;5097452;28;20536;-61
2021/01/01 03:34:02;;;;;;;18.70;12.13;;;5.70;1.00;;;;;;5096981;28;20656;-61
2021/01/01 03:36:27;;;;;;;19.73;12.13;;;5.80;99.90;;;;;;5097320;28;20245;-61
2021/01/01 03:38:54;;;;;;;20.77;13.87;;;5.50;99.90;;;;;;5097014;28;20476;-61
2021/01/01 03:41:20;;;;;;;20.45;12.77;;;5.30;1.00;;;;;;5097101;28;20167;-61
2021/01/01 03:43:48;;;;;;;19.40;12.03;;;5.30;1.00;;;;;;5096718;28;20490;-61
2021/01/01 03:46:14;;;;;;;21.92;12.60;;;5.00;99.90;;;;;;5096962;28;20179;-61
2021/01/01 03:48:40;;;;;;;20.27;13.13;;;5.20;1.00;;;;;;5096835;28;20276;-60
2021/01/01 03:51:05;;;;;;;23.43;12.93;;;5.20;1.00;;;;;;5096559;28;20180;-60
2021/01/01 03:53:31;;;;;;;22.87;12.90;;;5.40;1.00;;;;;;5096609;28;20196;-62
2021/01/01 03:55:56;;;;;;;22.80;12.50;;;5.50;1.00;;;;;;5096781;28;20370;-60
2021/01/01 03:58:22;;;;;;;22.90;13.90;;;5.40;99.90;;;;;;5096572;28;20576;-60
2021/01/01 04:00:47;;;;;;;22.33;14.50;;;5.40;1.00;;;;;;5096281;28;20196;-62
2021/01/01 04:03:13;;;;;;;17.43;12.20;;;5.40;1.00;;;;;;5096367;28;20180;-62
2021/01/01 04:05:39;;;;;;;23.00;13.70;;;5.30;99.90;;;;;;5096327;28;20176;-63
2021/01/01 04:08:05;;;;;;;18.83;12.50;;;5.50;1.00;;;;;;5096235;28;20603;-63
2021/01/01 04:10:30;;;;;;;24.63;14.33;;;5.50;99.90;;;;;;5096077;28;20191;-63
2021/01/01 04:12:56;;;;;;;19.30;12.70;;;5.70;1.00;;;;;;5094984;28;20502;-63
2021/01/01 04:15:21;;;;;;;26.23;15.43;;;5.70;99.90;;;;;;5095944;28;20201;-63
2021/01/01 04:17:47;;;;;;;21.60;13.87;;;5.60;1.00;;;;;;5096225;28;20248;-63
2021/01/01 04:20:13;;;;;;;26.40;14.40;;;5.50;99.90;;;;;;5096109;28;20506;-63
2021/01/01 04:22:38;;;;;;;24.15;15.00;;;5.20;99.90;;;;;;5095730;28;20180;-63
2021/01/01 04:25:04;;;;;;;21.97;13.63;;;5.20;1.00;;;;;;5095664;28;20263;-63
2021/01/01 04:27:30;;;;;;;29.35;16.20;;;5.10;1.00;;;;;;5095917;28;20613;-62
2021/01/01 04:29:55;;;;;;;22.07;14.57;;;5.20;53.40;;;;;;5095869;28;20183;-62
2021/01/01 04:32:21;;;;;;;25.77;15.87;;;5.10;99.90;;;;;;5095790;28;20200;-61
2021/01/01 04:34:46;;;;;;;26.57;15.40;;;5.30;99.90;;;;;;5094620;28;20176;-61
2021/01/01 04:37:12;;;;;;;20.00;12.83;;;5.20;60.10;;;;;;5095774;28;20258;-61
2021/01/01 04:39:38;;;;;;;22.97;13.87;;;5.10;99.90;;;;;;5095666;28;20168;-61
2021/01/01 04:42:04;;;;;;;22.67;15.87;;;5.00;99.90;;;;;;5095653;28;20218;-61
2021/01/01 04:44:30;;;;;;;28.55;14.63;;;4.80;99.90;;;;;;5095377;28;20171;-62
2021/01/01 04:46:56;;;;;;;23.80;15.87;;;4.80;1.00;;;;;;5095625;28;20177;-61
2021/01/01 04:49:21;;;;;;;26.13;16.07;;;5.00;1.00;;;;;;5095469;28;20172;-61
2021/01/01 04:51:47;;;;;;;25.63;13.70;;;5.00;1.00;;;;;;5095559;28;20418;-62
2021/01/01 04:54:16;;;;;;;30.63;15.30;;;4.90;1.00;;;;;;5095543;28;20219;-62
2021/01/01 04:56:49;;;;;;;28.80;16.92;;;5.00;1.00;;;;;;5095457;28;20168;-60
2021/01/01 04:59:16;;;;;;;25.52;16.20;;;5.10;1.00;;;;;;5095201;28;20182;-61
2021/01/01 05:01:45;;;;;;;30.50;17.83;;;5.00;1.00;;;;;;5095323;28;20702;-61
2021/01/01 05:04:12;;;;;;;31.20;15.85;;;4.90;1.00;;;;;;5094820;28;20175;-63
2021/01/01 05:06:40;;;;;;;30.15;17.67;;;5.00;1.00;;;;;;5094794;28;20188;-63
2021/01/01 05:09:06;;;;;;;29.13;16.42;;;4.90;1.00;;;;;;5094226;28;20180;-60
2021/01/01 05:11:32;;;;;;;31.40;16.52;;;4.80;1.00;;;;;;5095185;28;20173;-60
2021/01/01 05:14:03;;;;;;;32.03;16.73;;;4.70;1.00;;;;;;5094782;28;20234;-63
2021/01/01 05:16:28;;;;;;;30.55;17.65;;;4.80;1.00;;;;;;5094995;28;20184;-63
2021/01/01 05:18:54;;;;;;;26.53;16.13;;;4.60;1.00;;;;;;5094946;28;20176;-61
2021/01/01 05:21:24;;;;;;;30.35;18.00;;;4.60;94.40;;;;;;5095051;28;20275;-60
2021/01/01 05:23:52;;;;;;;34.78;18.50;;;4.70;99.90;;;;;;5094649;28;20204;-60
2021/01/01 05:26:18;;;;;;;39.63;20.20;;;4.60;99.90;;;;;;5094855;28;20198;-60
2021/01/01 05:28:49;;;;;;;30.75;18.05;;;4.40;99.90;;;;;;5094815;28;20183;-62
2021/01/01 05:31:27;;;;;;;37.38;19.25;;;4.50;99.90;;;;;;5094728;28;20613;-62
2021/01/01 05:34:07;;;;;;;31.58;18.25;;;4.40;99.90;;;;;;5094396;28;20211;-62
2021/01/01 05:36:35;;;;;;;36.30;19.48;;;4.50;99.90;;;;;;5094713;28;20473;-63
2021/01/01 05:39:08;;;;;;;32.13;17.35;;;4.50;99.90;;;;;;5094580;28;20206;-61
2021/01/01 05:41:39;;;;;;;33.00;19.20;;;4.50;99.90;;;;;;5094405;28;20175;-60
2021/01/01 05:44:09;;;;;;;31.02;16.58;;;4.50;99.90;;;;;;5094168;28;20180;-60
2021/01/01 05:46:36;;;;;;;30.95;18.35;;;4.50;99.90;;;;;;5094308;28;20187;-60
2021/01/01 05:49:03;;;;;;;34.22;19.63;;;4.60;99.90;;;;;;5094318;28;20274;-61
2021/01/01 05:51:28;;;;;;;36.05;18.65;;;4.60;99.90;;;;;;5094245;28;20283;-61
2021/01/01 05:54:10;;;;;;;35.13;19.97;;;4.70;99.90;;;;;;5093895;28;20493;-59
2021/01/01 05:56:38;;;;;;;31.90;18.60;;;4.60;99.90;;;;;;5094310;28;20176;-62
2021/01/01 05:59:06;;;;;;;38.78;20.85;;;4.70;99.90;;;;;;5094272;28;20179;-61
2021/01/01 06:01:35;;;;;;;30.58;18.00;;;4.80;99.90;;;;;;5093997;28;20180;-61
2021/01/01 06:04:03;;;;;;;34.53;19.17;;;4.80;99.90;;;;;;5094093;28;20184;-61
2021/01/01 06:06:32;;;;;;;32.17;19.50;;;4.70;99.90;;;;;;5093838;28;20213;-61
2021/01/01 06:09:06;;;;;;;34.50;19.40;;;4.70;99.90;;;;;;5093858;28;20612;-61
2021/01/01 06:11:37;;;;;;;34.40;18.75;;;4.80;99.90;;;;;;5093900;28;20176;-61
2021/01/01 06:14:05;;;;;;;31.38;18.60;;;4.80;99.90;;;;;;5093626;28;20275;-61
2021/01/01 06:16:44;;;;;;;29.15;18.33;;;4.90;99.90;;;;;;5093011;28;20172;-61
2021/01/01 06:19:12;;;;;;;39.75;20.30;;;4.90;99.90;;;;;;5093610;28;20171;-62
2021/01/01 06:21:44;;;;;;;31.92;19.42;;;5.00;99.90;;;;;;5093768;28;20264;-62
2021/01/01 06:24:19;;;;;;;31.00;18.80;;;4.80;99.90;;;;;;5093445;28;20237;-61
2021/01/01 06:26:45;;;;;;;30.88;18.42;;;4.90;99.90;;;;;;5093723;28;20224;-62
2021/01/01 06:29:18;;;;;;;34.10;17.80;;;4.90;99.90;;;;;;5093658;28;20688;-63
2021/01/01 06:31:47;;;;;;;31.52;18.45;;;4.90;99.90;;;;;;5093594;28;20172;-62
2021/01/01 06:34:23;;;;;;;31.25;17.58;;;4.70;99.90;;;;;;5093184;28;20207;-60
2021/01/01 06:36:49;;;;;;;35.25;18.98;;;4.80;99.90;;;;;;5093929;28;20533;-60
2021/01/01 06:39:37;;;;;;;30.83;17.50;;;5.00;99.90;;;;;;5093557;28;20172;-60
2021/01/01 06:42:04;;;;;;;37.40;19.23;;;5.00;99.90;;;;;;5093513;28;20168;-60
2021/01/01 06:44:39;;;;;;;31.05;17.90;;;4.90;99.90;;;;;;5093296;28;20213;-60
2021/01/01 06:47:08;;;;;;;28.45;15.32;;;5.20;99.90;;;;;;5093484;28;20493;-60
2021/01/01 06:49:36;;;;;;;28.77;16.25;;;5.20;22.10;;;;;;5093397;28;20256;-60
2021/01/01 06:52:20;;;;;;;27.30;16.15;;;5.00;1.00;;;;;;5093543;28;20204;-60
2021/01/01 06:55:12;;;;;;;31.95;18.13;;;4.70;75.00;;;;;;5093113;28;20302;-60
2021/01/01 06:57:49;;;;;;;28.65;14.57;;;4.70;99.90;;;;;;5092094;28;20188;-60
2021/01/01 07:00:35;;;;;;;22.85;14.38;;;4.70;99.90;;;;;;5093871;28;20260;-60
2021/01/01 07:03:29;;;;;;;27.98;16.75;;;4.50;99.90;;;;;;5093250;28;20188;-58
2021/01/01 07:05:56;;;;;;;30.38;16.67;;;4.40;99.90;;;;;;5093170;28;20176;-58
2021/01/01 07:08:42;;;;;;;31.88;18.20;;;4.10;99.90;;;;;;5093391;28;20254;-60
2021/01/01 07:11:11;;;;;;;33.13;16.92;;;4.00;1.00;;;;;;5092120;28;20496;-60
2021/01/01 07:13:44;;;;;;;33.40;19.45;;;4.20;1.00;;;;;;5092841;28;20571;-60
2021/01/01 07:16:10;;;;;;;31.75;18.23;;;4.40;1.00;;;;;;5093082;28;20172;-60
2021/01/01 07:18:36;;;;;;;33.72;18.65;;;4.40;1.00;;;;;;5093055;28;20168;-60
2021/01/01 07:21:07;;;;;;;33.67;19.95;;;4.30;1.00;;;;;;5092996;28;20176;-60
2021/01/01 07:23:32;;;;;;;32.92;19.23;;;4.30;1.00;;;;;;5092990;28;20255;-61
2021/01/01 07:25:59;;;;;;;31.23;18.23;;;4.40;1.00;;;;;;5093117;28;20219;-61
2021/01/01 07:28:27;;;;;;;32.17;18.00;;;4.50;1.00;;;;;;5094556;28;20176;-61
2021/01/01 07:30:53;;;;;;;33.10;18.42;;;4.70;1.00;;;;;;5096766;28;20171;-62
2021/01/01 07:33:27;;;;;;;34.92;19.42;;;4.70;99.90;;;;;;5096476;28;20393;-61
2021/01/01 07:35:58;;;;;;;32.47;17.58;;;4.30;99.90;;;;;;5096714;28;20377;-61
2021/01/01 07:38:25;;;;;;;30.05;17.13;;;4.10;99.90;;;;;;5096590;28;20180;-60
2021/01/01 07:40:52;;;;;;;26.95;17.08;;;3.90;1.00;;;;;;5096588;28;20188;-60
2021/01/01 07:43:19;;;;;;;30.88;18.95;;;3.80;1.00;;;;;;5096339;28;20191;-60
2021/01/01 07:45:44;;;;;;;31.38;18.40;;;4.00;1.00;;;;;;5096612;28;20201;-61
2021/01/01 07:48:10;;;;;;;33.93;17.70;;;4.30;1.00;;;;;;5096441;28;20180;-61
2021/01/01 07:50:38;;;;;;;31.07;18.07;;;4.40;1.00;;;;;;5096375;28;20643;-61
2021/01/01 07:53:08;;;;;;;30.90;17.20;;;4.40;1.00;;;;;;5096127;28;20195;-59
2021/01/01 07:55:35;;;;;;;31.85;17.17;;;4.40;1.00;;;;;;5096355;28;20202;-59
2021/01/01 07:58:07;;;;;;;23.92;14.48;;;4.40;1.00;;;;;;5096778;28;20186;-61
2021/01/01 08:00:34;;;;;;;26.20;16.48;;;4.40;1.00;;;;;;5096358;28;20195;-60
2021/01/01 08:03:04;;;;;;;28.35;16.02;;;4.40;1.00;;;;;;5096311;28;20172;-61
2021/01/01 08:05:31;;;;;;;28.42;16.75;;;4.20;1.00;;;;;;5095893;28;20195;-62
2021/01/01 08:08:14;;;;;;;27.48;16.80;;;4.10;1.00;;;;;;5096035;28;20557;-62
2021/01/01 08:10:41;;;;;;;25.30;14.90;;;4.30;1.00;;;;;;5096203;28;20186;-61
2021/01/01 08:13:21;;;;;;;29.48;18.02;;;4.30;1.00;;;;;;5095754;28;20231;-62
2021/01/01 08:15:48;;;;;;;31.08;17.70;;;4.40;1.00;;;;;;5095970;28;20179;-62
2021/01/01 08:18:21;;;;;;;33.05;18.50;;;4.20;1.00;;;;;;5095697;28;20176;-62
2021/01/01 08:21:00;;;;;;;28.13;16.75;;;4.10;1.00;;;;;;5095739;28;20569;-62
2021/01/01 08:23:28;;;;;;;28.48;17.00;;;4.00;1.00;;;;;;5095507;28;20658;-62
2021/01/01 08:25:55;;;;;;;32.45;19.23;;;4.00;1.00;;;;;;5095938;28;20180;-62
2021/01/01 08:28:26;;;;;;;31.25;18.88;;;4.10;1.00;;;;;;5094843;28;20184;-62
2021/01/01 08:31:03;;;;;;;30.30;18.15;;;4.10;1.00;;;;;;5096026;28;20200;-59
2021/01/01 08:33:40;;;;;;;32.72;19.02;;;4.30;1.00;;;;;;5095231;28;20597;-59
2021/01/01 08:36:10;;;;;;;36.00;18.75;;;4.50;1.00;;;;;;5095475;28;20186;-59
2021/01/01 08:38:37;;;;;;;33.33;19.80;;;4.60;1.00;;;;;;5095516;28;20541;-59
2021/01/01 08:41:03;;;;;;;34.00;19.15;;;4.60;1.00;;;;;;5094589;28;20262;-59
2021/01/01 08:43:29;;;;;;;30.90;17.85;;;4.80;99.90;;;;;;5094141;28;20236;-59
2021/01/01 08:45:55;;;;;;;37.42;19.63;;;4.80;99.90;;;;;;5095311;28;20234;-62
2021/01/01 08:48:21;;;;;;;34.10;20.03;;;4.70;99.90;;;;;;5095418;28;20557;-62
2021/01/01 08:50:51;;;;;;;35.83;18.50;;;4.70;99.90;;;;;;5095549;28;20491;-62
2021/01/01 08:53:18;;;;;;;32.60;19.27;;;5.10;99.90;;;;;;5095083;28;20192;-62
2021/01/01 08:55:55;;;;;;;34.60;20.58;;;5.40;99.90;;;;;;5095234;28;20180;-63
2021/01/01 08:58:21;;;;;;;36.75;22.27;;;5.40;1.00;;;;;;5095323;28;20619;-62
2021/01/01 09:00:46;;;;;;;40.17;20.70;;;5.40;1.00;;;;;;5095301;28;20227;-62
2021/01/01 09:03:17;;;;;;;35.27;18.67;;;5.20;1.00;;;;;;5095026;28;20187;-62
2021/01/01 09:05:44;;;;;;;36.58;19.90;;;5.20;1.00;;;;;;5094912;28;20938;-64
2021/01/01 09:08:20;;;;;;;33.80;19.20;;;5.20;1.00;;;;;;5095314;28;20183;-62
2021/01/01 09:10:47;;;;;;;36.03;20.73;;;4.80;1.00;;;;;;5095099;28;20190;-63
2021/01/01 09:13:16;;;;;;;35.47;19.63;;;4.90;1.00;;;;;;5094827;28;20211;-62
2021/01/01 09:15:43;;;;;;;29.15;18.92;;;5.10;1.00;;;;;;5094992;28;20206;-63
2021/01/01 09:18:09;;;;;;;27.70;17.10;;;5.30;1.00;;;;;;5095004;28;20176;-63
2021/01/01 09:20:40;;;;;;;31.23;16.85;;;5.30;1.00;;;;;;5094747;28;20184;-61
2021/01/01 09:23:07;;;;;;;29.73;17.50;;;5.10;1.00;;;;;;5094671;28;20236;-60
2021/01/01 09:25:34;;;;;;;26.90;16.55;;;5.00;1.00;;;;;;5093805;28;20195;-60
2021/01/01 09:28:00;;;;;;;32.00;18.70;;;4.90;1.00;;;;;;5094950;28;20176;-61
2021/01/01 09:30:30;;;;;;;30.95;17.38;;;5.10;1.00;;;;;;5094783;28;20225;-60
2021/01/01 09:32:58;;;;;;;29.48;17.58;;;5.00;1.00;;;;;;5094701;28;20204;-61
2021/01/01 09:35:25;;;;;;;28.30;16.45;;;5.20;1.00;;;;;;5094521;28;20518;-62
2021/01/01 09:37:52;;;;;;;33.83;19.30;;;5.40;1.00;;;;;;5094728;28;20266;-61
2021/01/01 09:40:19;;;;;;;29.05;17.73;;;5.40;99.90;;;;;;5094693;28;20252;-61
2021/01/01 09:42:44;;;;;;;32.25;18.50;;;5.30;71.50;;;;;;5094336;28;20517;-63
2021/01/01 09:45:11;;;;;;;29.37;17.87;;;5.20;89.60;;;;;;5094294;28;20168;-60
2021/01/01 09:47:37;;;;;;;28.40;17.48;;;5.40;99.90;;;;;;5094344;28;20498;-61
2021/01/01 09:50:04;;;;;;;38.13;23.97;;;5.40;99.90;;;;;;5094398;28;20184;-63
2021/01/01 09:52:30;;;;;;;34.92;19.73;;;5.60;99.90;;;;;;5094104;28;20287;-62
2021/01/01 09:54:55;;;;;;;32.40;20.40;;;5.70;1.00;;;;;;5094117;28;20204;-63
2021/01/01 09:57:21;;;;;;;27.80;15.87;;;5.60;99.90;;;;;;5094150;28;20207;-62
2021/01/01 09:59:46;;;;;;;26.47;17.10;;;5.50;1.00;;;;;;5093954;28;20179;-63
2021/01/01 10:02:12;;;;;;;38.27;22.10;;;5.40;1.00;;;;;;5093997;28;20168;-62
2021/01/01 10:04:38;;;;;;;32.73;19.50;;;5.50;92.70;;;;;;5093810;28;20221;-64
2021/01/01 10:07:03;;;;;;;30.03;16.07;;;5.60;1.00;;;;;;5092962;28;20202;-63
2021/01/01 10:09:29;;;;;;;22.17;12.57;;;5.70;1.00;;;;;;5094578;28;20176;-62
2021/01/01 10:11:57;;;;;;;26.47;14.90;;;5.60;1.00;;;;;;5094528;28;20176;-62
2021/01/01 10:14:23;;;;;;;45.88;26.02;;;5.90;1.00;;;;;;5094144;28;20265;-61
2021/01/01 10:17:01;;;;;;;24.52;15.35;;;5.90;1.00;;;;;;5094519;28;20714;-60
2021/01/01 10:19:45;;;;;;;64.75;35.63;;;5.70;1.00;;;;;;5093428;28;20226;-62
2021/01/01 10:22:11;;;;;;;32.25;17.00;;;5.70;99.90;;;;;;5093893;28;20175;-61
2021/01/01 10:24:45;;;;;;;25.77;14.90;;;5.60;14.80;;;;;;5093706;28;20195;-61
2021/01/01 10:27:11;;;;;;;25.88;14.10;;;5.80;99.90;;;;;;5093716;28;20168;-62
2021/01/01 10:29:37;;;;;;;41.70;24.25;;;5.40;99.90;;;;;;5092708;28;20442;-60
2021/01/01 10:32:04;;;;;;;48.23;28.27;;;5.40;1.00;;;;;;5093769;28;20180;-61
2021/01/01 10:34:30;;;;;;;25.95;14.30;;;6.00;1.00;;;;;;5093285;28;20283;-61
2021/01/01 10:36:55;;;;;;;44.53;24.33;;;6.10;99.90;;;;;;5093753;28;20605;-61
2021/01/01 10:39:21;;;;;;;26.00;15.43;;;6.50;1.00;;;;;;5093678;28;20187;-61
2021/01/01 10:41:49;;;;;;;26.67;16.70;;;6.90;1.00;;;;;;5093573;28;20172;-61
2021/01/01 10:44:16;;;;;;;24.63;13.25;;;6.90;1.00;;;;;;5091643;28;20442;-60
2021/01/01 10:46:42;;;;;;;25.60;15.25;;;6.60;1.00;;;;;;5093561;28;20245;-60
2021/01/01 10:49:07;;;;;;;25.00;13.73;;;6.70;99.90;;;;;;5090284;28;20527;-61
2021/01/01 10:51:33;;;;;;;24.57;14.77;;;6.80;1.00;;;;;;5093357;28;20542;-61
2021/01/01 10:53:58;;;;;;;24.53;13.63;;;6.80;99.90;;;;;;5092966;28;20851;-61
2021/01/01 10:56:26;;;;;;;20.87;13.90;;;7.10;99.90;;;;;;5093410;28;20515;-61
2021/01/01 10:58:52;;;;;;;23.67;14.90;;;7.30;99.90;;;;;;5093467;28;20173;-62
2021/01/01 11:01:19;;;;;;;19.23;13.63;;;7.30;1.00;;;;;;5093923;28;20187;-61
2021/01/01 11:03:46;;;;;;;22.30;14.15;;;7.30;99.90;;;;;;5095941;28;20890;-62
2021/01/01 11:06:11;;;;;;;27.75;14.52;;;7.70;99.90;;;;;;5098223;28;20515;-62
2021/01/01 11:08:41;;;;;;;17.93;12.73;;;7.70;1.00;;;;;;5098022;28;20278;-62
2021/01/01 11:11:09;;;;;;;19.23;13.80;;;7.40;1.00;;;;;;5097796;28;20192;-62
2021/01/01 11:13:38;;;;;;;22.45;12.35;;;7.30;1.00;;;;;;5097808;28;20223;-60
2021/01/01 12:22:40;;;;;;;23.92;14.88;;;7.30;1.00;;;;;;5095917;28;20237;-61
2021/01/01 12:25:11;;;;;;;25.27;16.58;;;7.10;32.40;;;;;;5095669;28;20596;-61
2021/01/01 12:27:37;;;;;;;26.05;16.67;;;7.00;87.80;;;;;;5095944;28;20233;-61
2021/01/01 12:30:07;;;;;;;24.23;15.70;;;7.10;63.70;;;;;;5095934;28;20164;-62
2021/01/01 12:32:36;;;;;;;25.63;16.13;;;7.00;1.00;;;;;;5095805;28;20562;-62
2021/01/01 12:35:01;;;;;;;31.27;18.08;;;7.20;99.90;;;;;;5095853;28;20188;-61
2021/01/01 12:37:27;;;;;;;24.40;15.43;;;7.20;99.90;;;;;;5078068;28;20176;-62
2021/01/01 12:39:53;;;;;;;25.63;17.40;;;7.30;99.90;;;;;;5095774;28;20176;-62
2021/01/01 12:42:21;;;;;;;29.40;19.53;;;7.10;99.90;;;;;;5095529;28;20275;-62
2021/01/01 12:44:49;;;;;;;25.45;17.98;;;7.00;1.00;;;;;;5095230;28;20176;-62
2021/01/01 12:47:15;;;;;;;25.63;16.88;;;7.10;99.90;;;;;;5095537;28;20187;-62
2021/01/01 12:49:45;;;;;;;31.33;19.10;;;7.40;1.00;;;;;;5095484;28;20246;-62
2021/01/01 12:52:12;;;;;;;29.13;17.45;;;7.30;1.00;;;;;;5095415;28;20175;-62
2021/01/01 12:54:37;;;;;;;30.73;19.88;;;7.20;99.90;;;;;;5094815;28;20207;-62
2021/01/01 12:57:03;;;;;;;31.67;20.43;;;7.30;99.90;;;;;;5095046;28;20168;-61
2021/01/01 12:59:29;;;;;;;44.97;31.87;;;7.50;99.90;;;;;;5094953;28;20474;-61
2021/01/01 13:01:54;;;;;;;29.53;18.93;;;7.60;99.90;;;;;;5095191;28;20172;-63
2021/01/01 13:04:20;;;;;;;31.27;18.37;;;7.70;99.90;;;;;;5094880;28;20172;-63
2021/01/01 13:06:45;;;;;;;31.20;19.47;;;7.70;99.90;;;;;;5095001;28;20195;-63
2021/01/01 13:09:11;;;;;;;25.70;18.07;;;7.70;99.90;;;;;;5094914;28;20182;-64
2021/01/01 13:11:44;;;;;;;28.63;18.87;;;7.70;1.00;;;;;;5094968;28;20694;-63
2021/01/01 13:14:10;;;;;;;26.00;17.58;;;7.60;99.90;;;;;;5094355;28;20469;-63
2021/01/01 13:16:35;;;;;;;24.37;16.07;;;7.40;99.90;;;;;;5095007;28;20592;-62
2021/01/01 13:19:01;;;;;;;25.17;16.83;;;7.10;99.90;;;;;;5094633;28;20259;-63
2021/01/01 13:21:37;;;;;;;25.90;16.87;;;7.20;1.00;;;;;;5093828;28;20232;-62
2021/01/01 13:24:04;;;;;;;26.60;15.93;;;7.30;98.70;;;;;;5093032;28;20259;-63
2021/01/01 13:26:30;;;;;;;27.63;17.88;;;7.30;74.70;;;;;;5094153;28;20572;-63
2021/01/01 13:28:57;;;;;;;30.25;17.63;;;7.20;99.90;;;;;;5095072;28;20597;-62
2021/01/01 13:31:32;;;;;;;28.27;17.58;;;7.30;99.90;;;;;;5095118;28;20314;-62
2021/01/01 13:33:58;;;;;;;25.40;15.40;;;7.30;99.90;;;;;;5093961;28;20258;-63
2021/01/01 13:36:23;;;;;;;29.87;18.20;;;7.30;99.90;;;;;;5094835;28;20200;-63
2021/01/01 13:38:49;;;;;;;28.47;18.33;;;7.30;1.00;;;;;;5094183;28;20486;-63
2021/01/01 13:41:14;;;;;;;29.13;16.40;;;7.00;1.00;;;;;;5094223;28;20172;-63
2021/01/01 13:43:41;;;;;;;28.57;16.60;;;6.90;99.90;;;;;;5094175;28;20253;-62
2021/01/01 13:46:08;;;;;;;22.88;15.60;;;6.90;1.00;;;;;;5094343;28;20184;-63
2021/01/01 13:48:37;;;;;;;23.30;16.85;;;7.00;79.50;;;;;;5094153;28;20286;-62
2021/01/01 13:51:03;;;;;;;23.95;15.80;;;7.10;1.00;;;;;;5093974;28;20266;-61
2021/01/01 13:53:29;;;;;;;22.73;15.15;;;7.20;1.00;;;;;;5093644;28;20203;-60